sensor_id;sensor_type;location;lat;lon;timestamp;P1;durP1;ratioP1;P2;durP2;ratioP2
15573;SDS011;7888;46.748;8.102;2023-02-23T00:01:51;8.40;;;3.57;;
15573;SDS011;7888;46.748;8.102;2023-02-23T00:04:17;10.77;;;4.13;;
15573;SDS011;7888;46.748;8.102;2023-02-23T00:06:43;4.10;;;3.23;;
15573;SDS011;7888;46.748;8.102;2023-02-23T00:09:09;5.27;;;3.73;;
15573;SDS011;7888;46.748;8.102;2023-02-23T00:11:52;5.53;;;3.57;;
15573;SDS011;7888;46.748;8.102;2023-02-23T00:14:23;4.50;;;3.90;;
15573;SDS011;7888;46.748;8.102;2023-02-23T00:16:52;3.47;;;3.17;;
15573;SDS011;7888;46.748;8.102;2023-02-23T00:19:21;3.63;;;3.27;;
15573;SDS011;7888;46.748;8.102;2023-02-23T00:21:48;3.80;;;3.40;;
15573;SDS011;7888;46.748;8.102;2023-02-23T00:24:15;4.40;;;3.30;;
15573;SDS011;7888;46.748;8.102;2023-02-23T00:26:45;4.00;;;3.60;;
15573;SDS011;7888;46.748;8.102;2023-02-23T00:29:19;4.93;;;3.63;;
15573;SDS011;7888;46.748;8.102;2023-02-23T00:31:49;4.30;;;3.70;;
15573;SDS011;7888;46.748;8.102;2023-02-23T00:34:16;4.50;;;3.83;;
15573;SDS011;7888;46.748;8.102;2023-02-23T00:36:45;3.77;;;3.43;;
15573;SDS011;7888;46.748;8.102;2023-02-23T00:39:14;6.13;;;3.83;;
15573;SDS011;7888;46.748;8.102;2023-02-23T00:41:46;14.00;;;4.20;;
15573;SDS011;7888;46.748;8.102;2023-02-23T00:44:13;10.53;;;4.17;;
15573;SDS011;7888;46.748;8.102;2023-02-23T00:46:39;4.20;;;3.63;;
15573;SDS011;7888;46.748;8.102;2023-02-23T00:49:07;5.70;;;3.77;;
15573;SDS011;7888;46.748;8.102;2023-02-23T00:51:36;18.07;;;4.10;;
15573;SDS011;7888;46.748;8.102;2023-02-23T00:54:03;6.83;;;3.23;;
15573;SDS011;7888;46.748;8.102;2023-02-23T00:56:30;3.90;;;3.50;;
15573;SDS011;7888;46.748;8.102;2023-02-23T00:58:56;3.63;;;3.27;;
15573;SDS011;7888;46.748;8.102;2023-02-23T01:01:22;3.97;;;3.60;;
15573;SDS011;7888;46.748;8.102;2023-02-23T01:03:49;4.03;;;3.27;;
15573;SDS011;7888;46.748;8.102;2023-02-23T01:06:17;4.63;;;3.20;;
15573;SDS011;7888;46.748;8.102;2023-02-23T01:08:44;3.53;;;3.23;;
15573;SDS011;7888;46.748;8.102;2023-02-23T01:11:16;3.63;;;3.17;;
15573;SDS011;7888;46.748;8.102;2023-02-23T01:13:46;3.53;;;3.23;;
15573;SDS011;7888;46.748;8.102;2023-02-23T01:16:16;3.53;;;3.10;;
15573;SDS011;7888;46.748;8.102;2023-02-23T01:18:46;4.07;;;3.67;;
15573;SDS011;7888;46.748;8.102;2023-02-23T01:21:32;4.23;;;3.53;;
15573;SDS011;7888;46.748;8.102;2023-02-23T01:24:02;5.20;;;3.10;;
15573;SDS011;7888;46.748;8.102;2023-02-23T01:26:29;3.50;;;3.20;;
15573;SDS011;7888;46.748;8.102;2023-02-23T01:29:00;44.60;;;6.43;;
15573;SDS011;7888;46.748;8.102;2023-02-23T01:31:42;3.60;;;3.30;;
15573;SDS011;7888;46.748;8.102;2023-02-23T01:34:13;2.90;;;2.70;;
15573;SDS011;7888;46.748;8.102;2023-02-23T01:36:40;3.77;;;3.40;;
15573;SDS011;7888;46.748;8.102;2023-02-23T01:39:10;5.33;;;3.53;;
15573;SDS011;7888;46.748;8.102;2023-02-23T01:41:38;3.90;;;2.83;;
15573;SDS011;7888;46.748;8.102;2023-02-23T01:46:41;2.97;;;2.67;;
15573;SDS011;7888;46.748;8.102;2023-02-23T01:49:13;3.17;;;2.67;;
15573;SDS011;7888;46.748;8.102;2023-02-23T01:51:56;3.03;;;2.80;;
15573;SDS011;7888;46.748;8.102;2023-02-23T01:54:36;3.10;;;2.80;;
15573;SDS011;7888;46.748;8.102;2023-02-23T01:57:07;3.07;;;2.77;;
15573;SDS011;7888;46.748;8.102;2023-02-23T01:59:41;3.00;;;2.80;;
15573;SDS011;7888;46.748;8.102;2023-02-23T02:02:13;4.33;;;3.40;;
15573;SDS011;7888;46.748;8.102;2023-02-23T02:04:42;3.50;;;3.20;;
15573;SDS011;7888;46.748;8.102;2023-02-23T02:07:09;4.00;;;2.53;;
15573;SDS011;7888;46.748;8.102;2023-02-23T02:09:46;2.90;;;2.70;;
15573;SDS011;7888;46.748;8.102;2023-02-23T02:12:35;3.50;;;2.80;;
15573;SDS011;7888;46.748;8.102;2023-02-23T02:15:05;3.23;;;2.93;;
15573;SDS011;7888;46.748;8.102;2023-02-23T02:17:46;3.00;;;2.70;;
15573;SDS011;7888;46.748;8.102;2023-02-23T02:32:26;2.90;;;2.67;;
15573;SDS011;7888;46.748;8.102;2023-02-23T02:41:07;3.13;;;2.77;;
15573;SDS011;7888;46.748;8.102;2023-02-23T02:43:59;3.13;;;2.40;;
15573;SDS011;7888;46.748;8.102;2023-02-23T02:46:54;2.73;;;2.53;;
15573;SDS011;7888;46.748;8.102;2023-02-23T02:49:35;4.83;;;2.70;;
15573;SDS011;7888;46.748;8.102;2023-02-23T02:52:24;3.00;;;2.70;;
15573;SDS011;7888;46.748;8.102;2023-02-23T02:55:14;2.57;;;2.37;;
15573;SDS011;7888;46.748;8.102;2023-02-23T02:58:08;2.97;;;2.33;;
15573;SDS011;7888;46.748;8.102;2023-02-23T03:00:40;2.50;;;2.20;;
15573;SDS011;7888;46.748;8.102;2023-02-23T03:03:30;2.10;;;1.90;;
15573;SDS011;7888;46.748;8.102;2023-02-23T03:06:33;10.73;;;2.43;;
15573;SDS011;7888;46.748;8.102;2023-02-23T03:16:20;3.30;;;2.30;;
15573;SDS011;7888;46.748;8.102;2023-02-23T03:19:21;2.57;;;2.30;;
15573;SDS011;7888;46.748;8.102;2023-02-23T03:28:24;2.27;;;2.03;;
15573;SDS011;7888;46.748;8.102;2023-02-23T03:31:20;3.30;;;2.47;;
15573;SDS011;7888;46.748;8.102;2023-02-23T03:34:29;3.00;;;2.60;;
15573;SDS011;7888;46.748;8.102;2023-02-23T03:37:32;2.53;;;2.07;;
15573;SDS011;7888;46.748;8.102;2023-02-23T03:40:38;2.23;;;2.03;;
15573;SDS011;7888;46.748;8.102;2023-02-23T03:43:31;3.67;;;2.50;;
15573;SDS011;7888;46.748;8.102;2023-02-23T03:46:29;2.77;;;2.47;;
15573;SDS011;7888;46.748;8.102;2023-02-23T03:49:15;2.33;;;2.13;;
15573;SDS011;7888;46.748;8.102;2023-02-23T03:52:05;2.47;;;2.23;;
15573;SDS011;7888;46.748;8.102;2023-02-23T03:55:00;2.67;;;2.47;;
15573;SDS011;7888;46.748;8.102;2023-02-23T03:58:13;2.40;;;2.20;;
15573;SDS011;7888;46.748;8.102;2023-02-23T04:01:05;2.20;;;1.90;;
15573;SDS011;7888;46.748;8.102;2023-02-23T04:03:54;2.50;;;2.30;;
15573;SDS011;7888;46.748;8.102;2023-02-23T04:06:45;2.90;;;1.93;;
15573;SDS011;7888;46.748;8.102;2023-02-23T04:09:31;2.20;;;2.00;;
15573;SDS011;7888;46.748;8.102;2023-02-23T04:12:37;3.97;;;2.10;;
15573;SDS011;7888;46.748;8.102;2023-02-23T04:15:32;2.70;;;1.77;;
15573;SDS011;7888;46.748;8.102;2023-02-23T04:18:05;3.67;;;2.50;;
15573;SDS011;7888;46.748;8.102;2023-02-23T04:20:37;2.40;;;2.20;;
15573;SDS011;7888;46.748;8.102;2023-02-23T04:23:02;2.50;;;2.30;;
15573;SDS011;7888;46.748;8.102;2023-02-23T04:25:29;2.30;;;2.10;;
15573;SDS011;7888;46.748;8.102;2023-02-23T04:27:54;2.23;;;2.03;;
15573;SDS011;7888;46.748;8.102;2023-02-23T04:30:20;2.40;;;2.20;;
15573;SDS011;7888;46.748;8.102;2023-02-23T04:32:49;2.40;;;2.20;;
15573;SDS011;7888;46.748;8.102;2023-02-23T04:35:19;2.20;;;2.00;;
15573;SDS011;7888;46.748;8.102;2023-02-23T04:37:45;2.60;;;2.40;;
15573;SDS011;7888;46.748;8.102;2023-02-23T04:40:11;9.87;;;2.20;;
15573;SDS011;7888;46.748;8.102;2023-02-23T04:42:38;19.23;;;3.77;;
15573;SDS011;7888;46.748;8.102;2023-02-23T04:45:05;4.43;;;2.40;;
15573;SDS011;7888;46.748;8.102;2023-02-23T04:47:33;8.57;;;2.77;;
15573;SDS011;7888;46.748;8.102;2023-02-23T04:49:58;48.97;;;5.20;;
15573;SDS011;7888;46.748;8.102;2023-02-23T04:52:24;28.23;;;3.37;;
15573;SDS011;7888;46.748;8.102;2023-02-23T04:54:50;14.57;;;2.90;;
15573;SDS011;7888;46.748;8.102;2023-02-23T04:57:16;20.00;;;4.20;;
15573;SDS011;7888;46.748;8.102;2023-02-23T04:59:42;20.27;;;3.67;;
15573;SDS011;7888;46.748;8.102;2023-02-23T05:02:08;87.30;;;7.70;;
15573;SDS011;7888;46.748;8.102;2023-02-23T05:04:34;44.20;;;4.93;;
15573;SDS011;7888;46.748;8.102;2023-02-23T05:07:00;14.80;;;3.00;;
15573;SDS011;7888;46.748;8.102;2023-02-23T05:09:27;68.57;;;6.73;;
15573;SDS011;7888;46.748;8.102;2023-02-23T05:11:54;44.23;;;5.67;;
15573;SDS011;7888;46.748;8.102;2023-02-23T05:14:20;28.67;;;4.53;;
15573;SDS011;7888;46.748;8.102;2023-02-23T05:16:46;14.10;;;3.37;;
15573;SDS011;7888;46.748;8.102;2023-02-23T05:19:12;36.63;;;4.10;;
15573;SDS011;7888;46.748;8.102;2023-02-23T05:21:38;4.57;;;2.07;;
15573;SDS011;7888;46.748;8.102;2023-02-23T05:24:05;22.70;;;2.97;;
15573;SDS011;7888;46.748;8.102;2023-02-23T05:26:32;7.00;;;2.30;;
15573;SDS011;7888;46.748;8.102;2023-02-23T05:28:58;3.13;;;2.07;;
15573;SDS011;7888;46.748;8.102;2023-02-23T05:31:24;46.57;;;4.40;;
15573;SDS011;7888;46.748;8.102;2023-02-23T05:33:50;12.87;;;2.57;;
15573;SDS011;7888;46.748;8.102;2023-02-23T05:36:17;1.60;;;1.50;;
15573;SDS011;7888;46.748;8.102;2023-02-23T05:38:46;1.50;;;1.40;;
15573;SDS011;7888;46.748;8.102;2023-02-23T05:41:13;11.53;;;2.83;;
15573;SDS011;7888;46.748;8.102;2023-02-23T05:43:42;7.03;;;2.20;;
15573;SDS011;7888;46.748;8.102;2023-02-23T05:46:09;20.57;;;3.90;;
15573;SDS011;7888;46.748;8.102;2023-02-23T05:48:40;7.97;;;3.00;;
15573;SDS011;7888;46.748;8.102;2023-02-23T05:51:07;7.53;;;3.00;;
15573;SDS011;7888;46.748;8.102;2023-02-23T05:53:36;3.83;;;2.80;;
15573;SDS011;7888;46.748;8.102;2023-02-23T05:56:03;2.50;;;2.30;;
15573;SDS011;7888;46.748;8.102;2023-02-23T05:58:31;2.40;;;2.20;;
15573;SDS011;7888;46.748;8.102;2023-02-23T06:00:58;6.80;;;2.80;;
15573;SDS011;7888;46.748;8.102;2023-02-23T06:03:23;3.23;;;1.97;;
15573;SDS011;7888;46.748;8.102;2023-02-23T06:05:50;1.90;;;1.70;;
15573;SDS011;7888;46.748;8.102;2023-02-23T06:08:18;2.17;;;1.97;;
15573;SDS011;7888;46.748;8.102;2023-02-23T06:10:44;7.63;;;3.57;;
15573;SDS011;7888;46.748;8.102;2023-02-23T06:13:11;5.43;;;3.93;;
15573;SDS011;7888;46.748;8.102;2023-02-23T06:15:38;5.27;;;4.33;;
15573;SDS011;7888;46.748;8.102;2023-02-23T06:18:05;6.07;;;3.70;;
15573;SDS011;7888;46.748;8.102;2023-02-23T06:20:33;5.13;;;4.63;;
15573;SDS011;7888;46.748;8.102;2023-02-23T06:22:59;3.60;;;3.30;;
15573;SDS011;7888;46.748;8.102;2023-02-23T06:25:25;3.37;;;3.07;;
15573;SDS011;7888;46.748;8.102;2023-02-23T06:27:51;3.10;;;2.80;;
15573;SDS011;7888;46.748;8.102;2023-02-23T06:30:17;3.30;;;3.00;;
15573;SDS011;7888;46.748;8.102;2023-02-23T06:32:43;3.00;;;2.80;;
15573;SDS011;7888;46.748;8.102;2023-02-23T06:35:09;3.10;;;2.67;;
15573;SDS011;7888;46.748;8.102;2023-02-23T06:37:36;3.50;;;3.03;;
15573;SDS011;7888;46.748;8.102;2023-02-23T06:40:02;3.90;;;3.50;;
15573;SDS011;7888;46.748;8.102;2023-02-23T06:42:29;2.80;;;2.60;;
15573;SDS011;7888;46.748;8.102;2023-02-23T06:44:55;3.90;;;3.17;;
15573;SDS011;7888;46.748;8.102;2023-02-23T06:47:21;3.07;;;2.70;;
15573;SDS011;7888;46.748;8.102;2023-02-23T06:49:47;3.00;;;2.70;;
15573;SDS011;7888;46.748;8.102;2023-02-23T06:52:13;3.33;;;3.03;;
15573;SDS011;7888;46.748;8.102;2023-02-23T06:54:39;3.17;;;2.87;;
15573;SDS011;7888;46.748;8.102;2023-02-23T06:57:06;2.87;;;2.67;;
15573;SDS011;7888;46.748;8.102;2023-02-23T06:59:33;3.83;;;3.33;;
15573;SDS011;7888;46.748;8.102;2023-02-23T07:02:00;3.27;;;2.93;;
15573;SDS011;7888;46.748;8.102;2023-02-23T07:04:29;3.03;;;2.83;;
15573;SDS011;7888;46.748;8.102;2023-02-23T07:06:56;4.00;;;3.60;;
15573;SDS011;7888;46.748;8.102;2023-02-23T07:09:22;2.97;;;2.67;;
15573;SDS011;7888;46.748;8.102;2023-02-23T07:11:48;2.67;;;2.47;;
15573;SDS011;7888;46.748;8.102;2023-02-23T07:14:14;10.37;;;3.27;;
15573;SDS011;7888;46.748;8.102;2023-02-23T07:16:40;40.90;;;5.43;;
15573;SDS011;7888;46.748;8.102;2023-02-23T07:19:06;39.80;;;5.23;;
15573;SDS011;7888;46.748;8.102;2023-02-23T07:21:32;5.73;;;3.00;;
15573;SDS011;7888;46.748;8.102;2023-02-23T07:23:59;4.47;;;2.87;;
15573;SDS011;7888;46.748;8.102;2023-02-23T07:26:28;6.00;;;2.70;;
15573;SDS011;7888;46.748;8.102;2023-02-23T07:28:55;3.07;;;2.77;;
15573;SDS011;7888;46.748;8.102;2023-02-23T07:31:21;4.30;;;2.30;;
15573;SDS011;7888;46.748;8.102;2023-02-23T07:33:46;5.00;;;2.43;;
15573;SDS011;7888;46.748;8.102;2023-02-23T07:36:12;3.73;;;2.70;;
15573;SDS011;7888;46.748;8.102;2023-02-23T07:38:38;8.00;;;3.40;;
15573;SDS011;7888;46.748;8.102;2023-02-23T07:41:04;49.43;;;5.93;;
15573;SDS011;7888;46.748;8.102;2023-02-23T07:43:30;26.87;;;4.97;;
15573;SDS011;7888;46.748;8.102;2023-02-23T07:45:59;23.20;;;5.07;;
15573;SDS011;7888;46.748;8.102;2023-02-23T07:48:26;4.43;;;4.03;;
15573;SDS011;7888;46.748;8.102;2023-02-23T07:50:53;4.93;;;3.40;;
15573;SDS011;7888;46.748;8.102;2023-02-23T07:53:19;8.87;;;3.70;;
15573;SDS011;7888;46.748;8.102;2023-02-23T07:55:45;46.13;;;5.17;;
15573;SDS011;7888;46.748;8.102;2023-02-23T07:58:10;58.23;;;6.00;;
15573;SDS011;7888;46.748;8.102;2023-02-23T08:00:37;24.53;;;4.33;;
15573;SDS011;7888;46.748;8.102;2023-02-23T08:03:04;15.93;;;3.27;;
15573;SDS011;7888;46.748;8.102;2023-02-23T08:05:31;75.40;;;6.97;;
15573;SDS011;7888;46.748;8.102;2023-02-23T08:07:57;24.80;;;3.93;;
15573;SDS011;7888;46.748;8.102;2023-02-23T08:10:23;20.50;;;3.30;;
15573;SDS011;7888;46.748;8.102;2023-02-23T08:12:50;21.03;;;4.47;;
15573;SDS011;7888;46.748;8.102;2023-02-23T08:15:16;37.20;;;4.53;;
15573;SDS011;7888;46.748;8.102;2023-02-23T08:17:41;44.50;;;5.10;;
15573;SDS011;7888;46.748;8.102;2023-02-23T08:20:08;11.87;;;3.27;;
15573;SDS011;7888;46.748;8.102;2023-02-23T08:22:34;6.13;;;2.70;;
15573;SDS011;7888;46.748;8.102;2023-02-23T08:25:00;11.63;;;3.30;;
15573;SDS011;7888;46.748;8.102;2023-02-23T09:38:19;17.20;;;2.97;;
15573;SDS011;7888;46.748;8.102;2023-02-23T09:40:46;32.30;;;4.50;;
15573;SDS011;7888;46.748;8.102;2023-02-23T09:49:19;2.13;;;1.93;;
15573;SDS011;7888;46.748;8.102;2023-02-23T09:51:52;15.10;;;2.87;;
15573;SDS011;7888;46.748;8.102;2023-02-23T09:54:28;3.13;;;2.07;;
15573;SDS011;7888;46.748;8.102;2023-02-23T09:56:59;6.70;;;2.73;;
15573;SDS011;7888;46.748;8.102;2023-02-23T09:59:30;80.70;;;7.47;;
15573;SDS011;7888;46.748;8.102;2023-02-23T10:04:48;11.07;;;2.83;;
15573;SDS011;7888;46.748;8.102;2023-02-23T10:10:28;3.80;;;2.57;;
15573;SDS011;7888;46.748;8.102;2023-02-23T10:16:00;6.40;;;2.70;;
15573;SDS011;7888;46.748;8.102;2023-02-23T10:18:56;3.90;;;2.57;;
15573;SDS011;7888;46.748;8.102;2023-02-23T10:21:40;2.50;;;2.30;;
15573;SDS011;7888;46.748;8.102;2023-02-23T10:24:18;11.50;;;2.50;;
15573;SDS011;7888;46.748;8.102;2023-02-23T10:26:53;2.67;;;2.47;;
15573;SDS011;7888;46.748;8.102;2023-02-23T10:29:31;5.13;;;2.53;;
15573;SDS011;7888;46.748;8.102;2023-02-23T10:32:06;9.93;;;3.17;;
15573;SDS011;7888;46.748;8.102;2023-02-23T10:35:13;7.33;;;3.13;;
15573;SDS011;7888;46.748;8.102;2023-02-23T10:37:42;15.93;;;4.17;;
15573;SDS011;7888;46.748;8.102;2023-02-23T10:42:41;3.37;;;3.00;;
15573;SDS011;7888;46.748;8.102;2023-02-23T10:45:15;2.73;;;2.53;;
15573;SDS011;7888;46.748;8.102;2023-02-23T10:47:48;2.93;;;2.17;;
15573;SDS011;7888;46.748;8.102;2023-02-23T10:50:25;2.77;;;2.57;;
15573;SDS011;7888;46.748;8.102;2023-02-23T10:52:53;2.40;;;2.20;;
15573;SDS011;7888;46.748;8.102;2023-02-23T10:55:44;1.80;;;1.70;;
15573;SDS011;7888;46.748;8.102;2023-02-23T10:58:23;2.20;;;2.00;;
15573;SDS011;7888;46.748;8.102;2023-02-23T11:00:53;1.90;;;1.70;;
15573;SDS011;7888;46.748;8.102;2023-02-23T11:03:26;1.70;;;1.60;;
15573;SDS011;7888;46.748;8.102;2023-02-23T11:06:01;1.90;;;1.80;;
15573;SDS011;7888;46.748;8.102;2023-02-23T11:08:31;1.73;;;1.63;;
15573;SDS011;7888;46.748;8.102;2023-02-23T11:11:16;2.30;;;1.53;;
15573;SDS011;7888;46.748;8.102;2023-02-23T11:13:50;3.30;;;2.00;;
15573;SDS011;7888;46.748;8.102;2023-02-23T11:16:27;3.17;;;2.00;;
15573;SDS011;7888;46.748;8.102;2023-02-23T11:19:02;1.63;;;1.53;;
15573;SDS011;7888;46.748;8.102;2023-02-23T11:21:37;1.73;;;1.63;;
15573;SDS011;7888;46.748;8.102;2023-02-23T11:26:55;1.67;;;1.47;;
15573;SDS011;7888;46.748;8.102;2023-02-23T11:29:32;2.60;;;1.43;;
15573;SDS011;7888;46.748;8.102;2023-02-23T11:32:11;2.03;;;1.50;;
15573;SDS011;7888;46.748;8.102;2023-02-23T11:34:47;1.70;;;1.47;;
15573;SDS011;7888;46.748;8.102;2023-02-23T11:37:39;2.10;;;1.90;;
15573;SDS011;7888;46.748;8.102;2023-02-23T11:42:59;1.60;;;1.37;;
15573;SDS011;7888;46.748;8.102;2023-02-23T11:45:44;1.40;;;1.30;;
15573;SDS011;7888;46.748;8.102;2023-02-23T11:48:21;1.60;;;1.50;;
15573;SDS011;7888;46.748;8.102;2023-02-23T11:51:07;1.67;;;1.33;;
15573;SDS011;7888;46.748;8.102;2023-02-23T11:53:34;2.43;;;1.53;;
15573;SDS011;7888;46.748;8.102;2023-02-23T11:56:06;1.90;;;1.80;;
15573;SDS011;7888;46.748;8.102;2023-02-23T11:58:42;1.60;;;1.50;;
15573;SDS011;7888;46.748;8.102;2023-02-23T12:01:14;1.80;;;1.53;;
15573;SDS011;7888;46.748;8.102;2023-02-23T12:06:38;2.07;;;1.60;;
15573;SDS011;7888;46.748;8.102;2023-02-23T12:09:11;1.50;;;1.40;;
15573;SDS011;7888;46.748;8.102;2023-02-23T12:14:47;1.70;;;1.60;;
15573;SDS011;7888;46.748;8.102;2023-02-23T12:17:27;1.60;;;1.50;;
15573;SDS011;7888;46.748;8.102;2023-02-23T12:20:08;2.87;;;1.40;;
15573;SDS011;7888;46.748;8.102;2023-02-23T12:23:07;2.07;;;1.50;;
15573;SDS011;7888;46.748;8.102;2023-02-23T12:25:41;1.80;;;1.57;;
15573;SDS011;7888;46.748;8.102;2023-02-23T12:34:10;2.23;;;1.30;;
15573;SDS011;7888;46.748;8.102;2023-02-23T12:37:03;2.00;;;1.38;;
15573;SDS011;7888;46.748;8.102;2023-02-23T12:40:36;3.13;;;1.50;;
15573;SDS011;7888;46.748;8.102;2023-02-23T12:42:59;2.40;;;1.25;;
15573;SDS011;7888;46.748;8.102;2023-02-23T12:48:37;1.53;;;1.30;;
15573;SDS011;7888;46.748;8.102;2023-02-23T12:51:18;1.40;;;1.30;;
15573;SDS011;7888;46.748;8.102;2023-02-23T12:54:00;2.50;;;1.35;;
15573;SDS011;7888;46.748;8.102;2023-02-23T13:15:54;2.57;;;1.83;;
15573;SDS011;7888;46.748;8.102;2023-02-23T13:22:15;1.43;;;1.30;;
15573;SDS011;7888;46.748;8.102;2023-02-23T13:25:19;1.97;;;1.20;;
15573;SDS011;7888;46.748;8.102;2023-02-23T13:27:56;3.60;;;1.10;;
15573;SDS011;7888;46.748;8.102;2023-02-23T13:30:25;1.50;;;1.23;;
15573;SDS011;7888;46.748;8.102;2023-02-23T13:33:00;2.60;;;1.40;;
15573;SDS011;7888;46.748;8.102;2023-02-23T13:35:37;4.43;;;1.47;;
15573;SDS011;7888;46.748;8.102;2023-02-23T13:38:06;2.20;;;1.53;;
15573;SDS011;7888;46.748;8.102;2023-02-23T13:43:52;3.53;;;1.60;;
15573;SDS011;7888;46.748;8.102;2023-02-23T13:46:41;2.50;;;1.50;;
15573;SDS011;7888;46.748;8.102;2023-02-23T13:51:51;2.13;;;1.60;;
15573;SDS011;7888;46.748;8.102;2023-02-23T13:54:30;1.40;;;1.30;;
15573;SDS011;7888;46.748;8.102;2023-02-23T13:56:58;4.17;;;1.53;;
15573;SDS011;7888;46.748;8.102;2023-02-23T13:59:40;1.47;;;1.37;;
15573;SDS011;7888;46.748;8.102;2023-02-23T14:05:00;3.83;;;1.80;;
15573;SDS011;7888;46.748;8.102;2023-02-23T14:07:51;2.00;;;1.30;;
15573;SDS011;7888;46.748;8.102;2023-02-23T14:10:37;2.90;;;1.50;;
15573;SDS011;7888;46.748;8.102;2023-02-23T14:18:05;3.67;;;2.37;;
15573;SDS011;7888;46.748;8.102;2023-02-23T14:20:55;3.10;;;1.83;;
15573;SDS011;7888;46.748;8.102;2023-02-23T14:24:02;3.53;;;1.70;;
15573;SDS011;7888;46.748;8.102;2023-02-23T14:33:07;2.40;;;1.37;;
15573;SDS011;7888;46.748;8.102;2023-02-23T14:38:46;6.13;;;1.60;;
15573;SDS011;7888;46.748;8.102;2023-02-23T14:41:36;1.53;;;1.43;;
15573;SDS011;7888;46.748;8.102;2023-02-23T14:44:21;4.40;;;1.90;;
15573;SDS011;7888;46.748;8.102;2023-02-23T14:47:15;2.53;;;1.60;;
15573;SDS011;7888;46.748;8.102;2023-02-23T14:49:57;4.13;;;1.97;;
15573;SDS011;7888;46.748;8.102;2023-02-23T14:52:26;2.93;;;1.83;;
15573;SDS011;7888;46.748;8.102;2023-02-23T14:57:45;5.47;;;2.20;;
15573;SDS011;7888;46.748;8.102;2023-02-23T15:05:23;2.90;;;1.87;;
15573;SDS011;7888;46.748;8.102;2023-02-23T15:08:00;2.73;;;1.97;;
15573;SDS011;7888;46.748;8.102;2023-02-23T15:10:35;2.77;;;1.70;;
15573;SDS011;7888;46.748;8.102;2023-02-23T15:13:08;3.23;;;1.83;;
15573;SDS011;7888;46.748;8.102;2023-02-23T15:15:53;3.50;;;1.80;;
15573;SDS011;7888;46.748;8.102;2023-02-23T15:18:23;4.40;;;2.20;;
15573;SDS011;7888;46.748;8.102;2023-02-23T15:20:58;5.00;;;1.90;;
15573;SDS011;7888;46.748;8.102;2023-02-23T15:23:32;2.43;;;1.53;;
15573;SDS011;7888;46.748;8.102;2023-02-23T15:28:49;2.90;;;2.00;;
15573;SDS011;7888;46.748;8.102;2023-02-23T15:31:15;7.30;;;2.20;;
15573;SDS011;7888;46.748;8.102;2023-02-23T15:33:43;3.70;;;2.00;;
15573;SDS011;7888;46.748;8.102;2023-02-23T15:36:18;4.57;;;2.27;;
15573;SDS011;7888;46.748;8.102;2023-02-23T15:38:58;3.77;;;2.00;;
15573;SDS011;7888;46.748;8.102;2023-02-23T15:41:33;3.80;;;1.90;;
15573;SDS011;7888;46.748;8.102;2023-02-23T15:44:23;2.43;;;2.00;;
15573;SDS011;7888;46.748;8.102;2023-02-23T15:46:55;5.17;;;2.30;;
15573;SDS011;7888;46.748;8.102;2023-02-23T15:49:25;4.60;;;2.00;;
15573;SDS011;7888;46.748;8.102;2023-02-23T15:51:57;3.67;;;1.93;;
15573;SDS011;7888;46.748;8.102;2023-02-23T15:54:37;3.27;;;2.00;;
15573;SDS011;7888;46.748;8.102;2023-02-23T15:57:18;5.57;;;1.90;;
15573;SDS011;7888;46.748;8.102;2023-02-23T15:59:56;3.30;;;2.23;;
15573;SDS011;7888;46.748;8.102;2023-02-23T16:02:25;4.57;;;2.33;;
15573;SDS011;7888;46.748;8.102;2023-02-23T16:04:53;2.53;;;2.10;;
15573;SDS011;7888;46.748;8.102;2023-02-23T16:07:25;4.43;;;2.07;;
15573;SDS011;7888;46.748;8.102;2023-02-23T16:10:04;2.57;;;1.90;;
15573;SDS011;7888;46.748;8.102;2023-02-23T16:12:45;3.93;;;2.10;;
15573;SDS011;7888;46.748;8.102;2023-02-23T16:15:24;6.47;;;2.10;;
15573;SDS011;7888;46.748;8.102;2023-02-23T16:21:12;2.97;;;2.23;;
15573;SDS011;7888;46.748;8.102;2023-02-23T16:23:30;5.27;;;1.87;;
15573;SDS011;7888;46.748;8.102;2023-02-23T16:26:10;3.37;;;1.93;;
15573;SDS011;7888;46.748;8.102;2023-02-23T16:29:12;3.27;;;1.90;;
15573;SDS011;7888;46.748;8.102;2023-02-23T16:32:02;3.83;;;2.13;;
15573;SDS011;7888;46.748;8.102;2023-02-23T16:37:23;6.93;;;2.67;;
15573;SDS011;7888;46.748;8.102;2023-02-23T16:39:52;4.83;;;2.30;;
15573;SDS011;7888;46.748;8.102;2023-02-23T16:42:29;4.33;;;2.10;;
15573;SDS011;7888;46.748;8.102;2023-02-23T16:44:58;2.53;;;1.80;;
15573;SDS011;7888;46.748;8.102;2023-02-23T16:50:00;3.33;;;1.97;;
15573;SDS011;7888;46.748;8.102;2023-02-23T16:52:41;4.13;;;2.17;;
15573;SDS011;7888;46.748;8.102;2023-02-23T16:55:13;2.60;;;1.80;;
15573;SDS011;7888;46.748;8.102;2023-02-23T16:57:44;4.83;;;1.80;;
15573;SDS011;7888;46.748;8.102;2023-02-23T17:00:19;3.40;;;1.97;;
15573;SDS011;7888;46.748;8.102;2023-02-23T17:02:52;4.33;;;1.60;;
15573;SDS011;7888;46.748;8.102;2023-02-23T17:05:20;2.77;;;1.90;;
15573;SDS011;7888;46.748;8.102;2023-02-23T17:07:48;4.17;;;2.20;;
15573;SDS011;7888;46.748;8.102;2023-02-23T17:10:17;3.13;;;1.90;;
15573;SDS011;7888;46.748;8.102;2023-02-23T17:12:57;3.07;;;1.97;;
15573;SDS011;7888;46.748;8.102;2023-02-23T17:15:29;4.73;;;1.97;;
15573;SDS011;7888;46.748;8.102;2023-02-23T17:17:59;3.50;;;2.00;;
15573;SDS011;7888;46.748;8.102;2023-02-23T17:20:25;4.60;;;2.07;;
15573;SDS011;7888;46.748;8.102;2023-02-23T17:22:55;3.90;;;2.03;;
15573;SDS011;7888;46.748;8.102;2023-02-23T17:25:23;3.70;;;2.30;;
15573;SDS011;7888;46.748;8.102;2023-02-23T17:27:51;3.47;;;2.00;;
15573;SDS011;7888;46.748;8.102;2023-02-23T17:30:20;3.57;;;2.17;;
15573;SDS011;7888;46.748;8.102;2023-02-23T17:32:47;6.87;;;2.63;;
15573;SDS011;7888;46.748;8.102;2023-02-23T17:35:15;4.13;;;2.33;;
15573;SDS011;7888;46.748;8.102;2023-02-23T17:37:41;4.77;;;2.43;;
15573;SDS011;7888;46.748;8.102;2023-02-23T17:40:09;3.40;;;2.43;;
15573;SDS011;7888;46.748;8.102;2023-02-23T17:42:50;4.87;;;2.27;;
15573;SDS011;7888;46.748;8.102;2023-02-23T17:45:17;5.67;;;2.70;;
15573;SDS011;7888;46.748;8.102;2023-02-23T17:47:43;3.53;;;2.07;;
15573;SDS011;7888;46.748;8.102;2023-02-23T17:50:09;2.67;;;1.97;;
15573;SDS011;7888;46.748;8.102;2023-02-23T17:52:35;2.57;;;1.90;;
15573;SDS011;7888;46.748;8.102;2023-02-23T17:55:01;3.50;;;2.30;;
15573;SDS011;7888;46.748;8.102;2023-02-23T17:57:27;4.53;;;1.93;;
15573;SDS011;7888;46.748;8.102;2023-02-23T17:59:56;3.47;;;2.00;;
15573;SDS011;7888;46.748;8.102;2023-02-23T18:02:23;3.60;;;2.17;;
15573;SDS011;7888;46.748;8.102;2023-02-23T18:04:49;2.70;;;2.17;;
15573;SDS011;7888;46.748;8.102;2023-02-23T18:07:18;5.53;;;2.57;;
15573;SDS011;7888;46.748;8.102;2023-02-23T18:09:45;3.30;;;2.77;;
15573;SDS011;7888;46.748;8.102;2023-02-23T18:12:14;5.43;;;2.60;;
15573;SDS011;7888;46.748;8.102;2023-02-23T18:14:43;5.33;;;2.93;;
15573;SDS011;7888;46.748;8.102;2023-02-23T18:17:10;4.73;;;2.40;;
15573;SDS011;7888;46.748;8.102;2023-02-23T18:19:36;4.17;;;2.90;;
15573;SDS011;7888;46.748;8.102;2023-02-23T18:22:03;3.87;;;2.63;;
15573;SDS011;7888;46.748;8.102;2023-02-23T18:24:28;5.27;;;2.73;;
15573;SDS011;7888;46.748;8.102;2023-02-23T18:26:56;4.67;;;3.03;;
15573;SDS011;7888;46.748;8.102;2023-02-23T18:29:26;4.10;;;3.03;;
15573;SDS011;7888;46.748;8.102;2023-02-23T18:31:58;5.37;;;3.33;;
15573;SDS011;7888;46.748;8.102;2023-02-23T18:34:27;5.43;;;2.53;;
15573;SDS011;7888;46.748;8.102;2023-02-23T18:36:54;6.07;;;3.47;;
15573;SDS011;7888;46.748;8.102;2023-02-23T18:39:22;7.47;;;3.87;;
15573;SDS011;7888;46.748;8.102;2023-02-23T18:41:48;7.43;;;4.40;;
15573;SDS011;7888;46.748;8.102;2023-02-23T18:44:15;6.87;;;3.60;;
15573;SDS011;7888;46.748;8.102;2023-02-23T18:46:43;5.77;;;4.40;;
15573;SDS011;7888;46.748;8.102;2023-02-23T18:49:17;6.17;;;3.20;;
15573;SDS011;7888;46.748;8.102;2023-02-23T18:51:46;5.90;;;3.50;;
15573;SDS011;7888;46.748;8.102;2023-02-23T18:54:13;6.13;;;3.07;;
15573;SDS011;7888;46.748;8.102;2023-02-23T18:56:43;7.27;;;3.50;;
15573;SDS011;7888;46.748;8.102;2023-02-23T18:59:11;5.33;;;3.23;;
15573;SDS011;7888;46.748;8.102;2023-02-23T19:01:37;5.77;;;3.10;;
15573;SDS011;7888;46.748;8.102;2023-02-23T19:04:05;6.80;;;3.10;;
15573;SDS011;7888;46.748;8.102;2023-02-23T19:06:33;5.20;;;2.67;;